createdAt,value
2023-02-21T00:02:01.863Z,4.67
2023-02-21T00:04:47.077Z,4.60
2023-02-21T00:07:32.826Z,4.90
2023-02-21T00:10:19.497Z,3.97
2023-02-21T00:13:05.290Z,4.30
2023-02-21T00:15:50.923Z,4.27
2023-02-21T00:18:36.443Z,4.57
2023-02-21T00:21:22.307Z,3.83
2023-02-21T00:24:07.947Z,4.70
2023-02-21T00:26:54.712Z,3.60
2023-02-21T00:29:42.730Z,4.67
2023-02-21T00:32:28.125Z,4.87
2023-02-21T00:35:13.475Z,3.10
2023-02-21T00:37:59.365Z,4.20
2023-02-21T00:40:44.635Z,2.90
2023-02-21T00:43:31.378Z,3.10
2023-02-21T00:46:17.070Z,2.87
2023-02-21T00:49:02.301Z,3.60
2023-02-21T00:51:47.890Z,2.23
2023-02-21T00:54:33.377Z,1.97
2023-02-21T00:57:18.910Z,4.03
2023-02-21T01:00:05.617Z,3.57
2023-02-21T01:02:51.194Z,4.33
2023-02-21T01:05:36.904Z,3.70
2023-02-21T01:08:22.870Z,3.70
2023-02-21T01:11:08.408Z,4.93
2023-02-21T01:13:53.939Z,4.23
2023-02-21T01:16:40.580Z,3.43
2023-02-21T01:19:26.151Z,3.43
2023-02-21T01:22:14.863Z,4.87
2023-02-21T01:25:00.463Z,3.93
2023-02-21T01:27:46.048Z,4.03
2023-02-21T01:30:31.580Z,4.10
2023-02-21T01:33:18.052Z,3.10
2023-02-21T01:36:03.551Z,5.10
2023-02-21T01:38:51.791Z,2.47
2023-02-21T01:41:37.050Z,3.13
2023-02-21T01:44:24.970Z,3.60
2023-02-21T01:47:10.630Z,2.67
2023-02-21T01:49:59.772Z,3.20
2023-02-21T01:52:45.551Z,2.43
2023-02-21T01:55:30.877Z,3.60
2023-02-21T01:58:16.779Z,2.60
2023-02-21T02:01:03.538Z,4.27
2023-02-21T02:03:53.253Z,6.43
2023-02-21T02:06:43.121Z,3.60
2023-02-21T02:09:36.813Z,3.70
2023-02-21T02:12:24.552Z,3.33
2023-02-21T02:15:13.200Z,4.27
2023-02-21T02:17:55.621Z,3.57
2023-02-21T02:21:00.169Z,5.50
2023-02-21T02:24:04.555Z,4.03
2023-02-21T02:26:55.865Z,3.60
2023-02-21T02:29:46.087Z,3.23
2023-02-21T02:32:31.692Z,4.10
2023-02-21T02:35:06.696Z,5.53
2023-02-21T02:37:40.687Z,3.83
2023-02-21T02:40:24.568Z,3.30
2023-02-21T02:43:04.535Z,5.20
2023-02-21T02:45:38.544Z,3.27
2023-02-21T02:48:11.967Z,3.40
2023-02-21T02:50:42.148Z,3.63
2023-02-21T02:53:10.118Z,3.03
2023-02-21T02:55:42.912Z,2.83
2023-02-21T02:58:12.701Z,2.90
2023-02-21T03:00:45.823Z,3.10
2023-02-21T03:03:38.758Z,3.03
2023-02-21T03:06:25.083Z,3.47
2023-02-21T03:08:57.105Z,3.23
2023-02-21T03:11:27.633Z,3.70
2023-02-21T03:14:04.996Z,3.80
2023-02-21T03:16:36.525Z,3.07
2023-02-21T03:19:08.765Z,5.03
2023-02-21T03:21:41.970Z,3.10
2023-02-21T03:24:12.380Z,3.40
2023-02-21T03:26:45.990Z,2.77
2023-02-21T03:29:14.837Z,2.80
2023-02-21T03:31:47.196Z,3.10
2023-02-21T03:34:16.003Z,6.67
2023-02-21T03:36:46.454Z,4.07
2023-02-21T03:39:14.467Z,3.60
2023-02-21T03:41:45.213Z,4.00
2023-02-21T03:44:13.265Z,5.53
2023-02-21T03:46:41.295Z,5.07
2023-02-21T03:49:09.299Z,5.13
2023-02-21T03:51:37.279Z,4.27
2023-02-21T03:54:06.728Z,3.00
2023-02-21T03:56:41.932Z,3.87
2023-02-21T03:59:10.774Z,3.10
2023-02-21T04:01:38.786Z,3.50
2023-02-21T04:04:06.719Z,3.40
2023-02-21T04:06:34.702Z,2.80
2023-02-21T04:09:02.773Z,3.30
2023-02-21T04:11:32.562Z,5.13
2023-02-21T04:14:00.521Z,2.83
2023-02-21T04:16:28.584Z,2.97
2023-02-21T04:18:57.205Z,2.87
2023-02-21T04:21:25.240Z,2.80
2023-02-21T04:23:53.288Z,3.00
2023-02-21T04:26:21.354Z,2.63
2023-02-21T04:28:50.742Z,3.10
2023-02-21T04:31:19.942Z,3.37
2023-02-21T04:33:47.951Z,4.33
2023-02-21T04:36:16.270Z,3.77
2023-02-21T04:38:44.233Z,4.27
2023-02-21T04:41:12.963Z,3.53
2023-02-21T04:43:44.030Z,5.50
2023-02-21T04:46:16.498Z,3.73
2023-02-21T04:48:44.873Z,4.37
2023-02-21T04:51:15.415Z,4.13
2023-02-21T04:53:43.940Z,4.27
2023-02-21T04:56:12.696Z,3.93
2023-02-21T04:58:45.341Z,3.97
2023-02-21T05:01:18.971Z,3.90
2023-02-21T05:03:47.878Z,3.50
2023-02-21T05:06:19.513Z,3.77
2023-02-21T05:08:47.672Z,3.20
2023-02-21T05:11:15.993Z,3.10
2023-02-21T05:13:44.208Z,3.23
2023-02-21T05:16:12.333Z,3.30
2023-02-21T05:18:43.024Z,3.10
2023-02-21T05:21:11.263Z,3.50
2023-02-21T05:23:41.085Z,2.93
2023-02-21T05:26:11.345Z,3.47
2023-02-21T05:28:40.491Z,3.30
2023-02-21T05:31:09.350Z,3.23
2023-02-21T05:33:37.627Z,3.03
2023-02-21T05:36:08.042Z,3.13
2023-02-21T05:38:46.176Z,3.40
2023-02-21T05:41:14.880Z,4.17
2023-02-21T05:43:48.180Z,3.67
2023-02-21T05:46:24.346Z,3.70
2023-02-21T05:48:52.383Z,3.77
2023-02-21T05:51:21.979Z,3.60
2023-02-21T05:53:50.317Z,4.07
2023-02-21T05:56:19.192Z,3.70
2023-02-21T05:58:47.189Z,3.83
2023-02-21T06:01:15.487Z,4.10
2023-02-21T06:03:44.776Z,4.33
2023-02-21T06:06:12.766Z,4.43
2023-02-21T06:08:46.580Z,4.83
2023-02-21T06:11:14.997Z,4.77
2023-02-21T06:13:43.239Z,5.00
2023-02-21T06:16:11.285Z,4.87
2023-02-21T06:18:39.318Z,4.97
2023-02-21T06:21:07.499Z,4.47
2023-02-21T06:23:35.475Z,5.13
2023-02-21T06:26:04.898Z,4.90
2023-02-21T06:28:33.378Z,5.20
2023-02-21T06:31:02.095Z,5.40
2023-02-21T06:33:30.311Z,5.57
2023-02-21T06:35:58.336Z,5.70
2023-02-21T06:38:26.330Z,6.00
2023-02-21T06:40:54.539Z,6.07
2023-02-21T06:43:23.881Z,5.67
2023-02-21T06:45:52.063Z,6.20
2023-02-21T06:48:20.222Z,6.50
2023-02-21T06:50:48.207Z,6.33
2023-02-21T06:53:16.333Z,5.67
2023-02-21T06:55:44.298Z,4.50
2023-02-21T06:58:12.270Z,5.53
2023-02-21T07:00:43.027Z,5.93
2023-02-21T07:03:11.046Z,5.43
2023-02-21T07:05:39.107Z,5.90
2023-02-21T07:08:07.371Z,5.90
2023-02-21T07:10:35.384Z,5.97
2023-02-21T07:13:03.359Z,5.23
2023-02-21T07:15:31.399Z,5.80
2023-02-21T07:18:03.405Z,5.17
2023-02-21T07:20:33.235Z,5.63
2023-02-21T07:23:01.346Z,5.80
2023-02-21T07:25:30.433Z,5.87
2023-02-21T07:27:58.462Z,5.90
2023-02-21T07:30:26.590Z,5.87
2023-02-21T07:32:57.575Z,5.73
2023-02-21T07:35:26.943Z,5.90
2023-02-21T07:37:55.063Z,6.03
2023-02-21T07:40:23.178Z,5.70
2023-02-21T07:42:51.154Z,6.30
2023-02-21T07:45:19.248Z,5.97
2023-02-21T07:47:48.157Z,6.40
2023-02-21T07:50:20.246Z,7.00
2023-02-21T07:52:49.581Z,5.80
2023-02-21T07:55:18.251Z,5.83
2023-02-21T07:57:46.509Z,5.20
2023-02-21T08:00:15.574Z,6.03
2023-02-21T08:02:48.666Z,6.20
2023-02-21T08:05:17.899Z,5.77
2023-02-21T08:07:46.202Z,5.60
2023-02-21T08:10:23.379Z,6.63
2023-02-21T08:12:51.512Z,5.90
2023-02-21T08:15:19.864Z,7.07
2023-02-21T08:17:50.254Z,5.10
2023-02-21T08:20:18.303Z,6.07
2023-02-21T08:22:46.358Z,7.10
2023-02-21T08:25:18.003Z,6.30
2023-02-21T08:27:46.625Z,6.50
2023-02-21T08:30:18.178Z,5.67
2023-02-21T08:32:48.542Z,6.70
2023-02-21T08:35:17.184Z,5.73
2023-02-21T08:37:46.456Z,5.90
2023-02-21T08:40:16.925Z,5.93
2023-02-21T08:42:44.902Z,5.90
2023-02-21T08:45:17.076Z,6.47
2023-02-21T08:47:45.453Z,5.37
2023-02-21T08:50:14.238Z,5.23
2023-02-21T08:52:42.285Z,5.80
2023-02-21T08:55:10.476Z,5.30
2023-02-21T08:57:39.868Z,5.40
2023-02-21T09:00:10.636Z,4.90
2023-02-21T09:02:39.985Z,4.63
2023-02-21T09:05:09.753Z,4.50
2023-02-21T09:07:37.763Z,4.20
2023-02-21T09:10:07.215Z,4.97
2023-02-21T09:12:35.179Z,4.27
2023-02-21T09:15:09.019Z,5.70
2023-02-21T09:17:40.751Z,4.80
2023-02-21T09:20:10.850Z,4.53
2023-02-21T09:22:38.964Z,5.07
2023-02-21T09:25:07.552Z,4.67
2023-02-21T09:27:38.401Z,4.53
2023-02-21T09:30:10.653Z,4.40
2023-02-21T09:32:42.043Z,4.17
2023-02-21T09:35:13.877Z,6.13
2023-02-21T09:37:42.615Z,4.77
2023-02-21T09:40:18.142Z,4.70
2023-02-21T09:42:47.481Z,4.50
2023-02-21T09:45:19.822Z,4.90
2023-02-21T09:47:51.977Z,5.23
2023-02-21T09:50:27.609Z,5.43
2023-02-21T09:52:58.902Z,5.13
2023-02-21T09:55:32.896Z,5.50
2023-02-21T09:58:01.498Z,6.13
2023-02-21T10:00:35.494Z,6.30
2023-02-21T10:03:20.049Z,4.33
2023-02-21T10:05:52.225Z,4.07
2023-02-21T10:08:30.126Z,3.93
2023-02-21T10:11:03.455Z,3.43
2023-02-21T10:13:39.428Z,2.83
2023-02-21T10:16:13.963Z,3.23
2023-02-21T10:18:48.392Z,2.43
2023-02-21T10:21:24.167Z,2.70
2023-02-21T10:23:55.321Z,2.97
2023-02-21T10:26:27.447Z,2.97
2023-02-21T10:28:57.145Z,2.57
2023-02-21T10:31:35.592Z,2.30
2023-02-21T10:34:07.463Z,2.50
2023-02-21T10:36:36.304Z,2.57
2023-02-21T10:39:11.490Z,2.27
2023-02-21T10:41:41.213Z,2.47
2023-02-21T10:44:14.962Z,1.93
2023-02-21T10:46:50.702Z,1.97
2023-02-21T10:49:24.579Z,1.93
2023-02-21T10:52:06.819Z,2.47
2023-02-21T10:54:35.442Z,2.50
2023-02-21T10:57:05.592Z,2.23
2023-02-21T10:59:36.451Z,2.27
2023-02-21T11:02:27.583Z,2.03
2023-02-21T11:04:57.229Z,1.40
2023-02-21T11:07:25.312Z,1.83
2023-02-21T11:09:55.636Z,1.50
2023-02-21T11:12:26.232Z,1.83
2023-02-21T11:15:21.272Z,1.40
2023-02-21T11:18:08.151Z,1.80
2023-02-21T11:20:36.159Z,2.33
2023-02-21T11:23:06.414Z,2.00
2023-02-21T11:25:41.176Z,2.00
2023-02-21T11:28:21.028Z,2.43
2023-02-21T11:30:52.974Z,2.10
2023-02-21T11:33:24.602Z,2.43
2023-02-21T11:35:55.310Z,4.23
2023-02-21T11:38:36.492Z,2.30
2023-02-21T11:41:16.058Z,2.30
2023-02-21T11:43:48.127Z,2.47
2023-02-21T11:46:22.342Z,1.97
2023-02-21T11:49:12.521Z,3.03
2023-02-21T11:51:45.623Z,2.50
2023-02-21T11:54:14.503Z,2.43
2023-02-21T11:56:52.726Z,2.27
2023-02-21T11:59:44.132Z,2.53
2023-02-21T12:02:45.836Z,2.37
2023-02-21T12:05:36.508Z,2.67
2023-02-21T12:08:22.941Z,2.90
2023-02-21T12:11:01.865Z,3.10
2023-02-21T12:13:38.097Z,3.20
2023-02-21T12:16:13.073Z,2.90
2023-02-21T12:18:53.501Z,2.23
2023-02-21T12:21:38.171Z,2.50
2023-02-21T12:24:25.903Z,2.10
2023-02-21T12:26:58.243Z,2.50
2023-02-21T12:29:39.309Z,2.20
2023-02-21T12:32:24.327Z,2.17
2023-02-21T12:35:05.511Z,3.13
2023-02-21T12:37:43.352Z,4.27
2023-02-21T12:40:21.043Z,1.77
2023-02-21T12:43:05.493Z,2.13
2023-02-21T12:45:53.269Z,2.30
2023-02-21T12:48:30.289Z,2.97
2023-02-21T12:51:04.786Z,2.17
2023-02-21T12:53:42.843Z,2.43
2023-02-21T12:56:16.226Z,2.03
2023-02-21T12:58:51.030Z,2.17
2023-02-21T13:01:23.042Z,2.77
2023-02-21T13:04:04.149Z,2.27
2023-02-21T13:06:35.475Z,2.47
2023-02-21T13:09:16.280Z,2.23
2023-02-21T13:11:51.180Z,2.30
2023-02-21T13:14:27.202Z,2.37
2023-02-21T13:16:55.564Z,2.47
2023-02-21T13:19:28.222Z,3.53
2023-02-21T13:22:07.539Z,2.40
2023-02-21T13:24:51.299Z,1.70
2023-02-21T13:27:45.137Z,2.27
2023-02-21T13:30:24.484Z,2.23
2023-02-21T13:32:55.103Z,2.50
2023-02-21T13:35:34.162Z,2.27
2023-02-21T13:38:08.339Z,1.93
2023-02-21T13:40:42.728Z,1.90
2023-02-21T13:43:15.756Z,1.93
2023-02-21T13:45:45.631Z,2.23
2023-02-21T13:48:24.516Z,3.03
2023-02-21T13:50:53.743Z,1.93
2023-02-21T13:53:23.774Z,2.10
2023-02-21T13:56:16.247Z,2.07
2023-02-21T13:59:00.628Z,3.03
2023-02-21T14:01:43.006Z,2.97
2023-02-21T14:04:44.684Z,3.17
2023-02-21T14:07:12.935Z,2.97
2023-02-21T14:09:42.982Z,3.77
2023-02-21T14:12:16.038Z,3.20
2023-02-21T14:14:46.456Z,2.93
2023-02-21T14:17:15.987Z,3.57
2023-02-21T14:19:48.582Z,4.60
2023-02-21T14:22:20.195Z,6.40
2023-02-21T14:24:51.382Z,3.70
2023-02-21T14:27:36.188Z,4.17
2023-02-21T14:30:29.065Z,3.80
2023-02-21T14:33:12.531Z,4.63
2023-02-21T14:35:47.995Z,3.87
2023-02-21T14:38:21.986Z,4.00
2023-02-21T14:41:02.068Z,3.70
2023-02-21T14:43:56.108Z,3.97
2023-02-21T14:46:54.874Z,3.70
2023-02-21T14:50:00.298Z,3.20
2023-02-21T14:53:03.158Z,4.20
2023-02-21T14:55:46.157Z,2.10
2023-02-21T14:58:49.547Z,2.93
2023-02-21T15:01:33.831Z,2.37
2023-02-21T15:04:05.756Z,2.30
2023-02-21T15:06:35.908Z,2.20
2023-02-21T15:09:13.876Z,2.00
2023-02-21T15:11:42.542Z,2.27
2023-02-21T15:14:23.901Z,2.40
2023-02-21T15:16:58.139Z,2.17
2023-02-21T15:19:32.032Z,2.80
2023-02-21T15:22:24.168Z,3.33
2023-02-21T15:25:17.801Z,4.53
2023-02-21T15:28:16.607Z,3.77
2023-02-21T15:30:58.154Z,5.47
2023-02-21T15:33:31.018Z,5.23
2023-02-21T15:36:02.395Z,3.40
2023-02-21T15:38:34.030Z,3.67
2023-02-21T15:41:06.965Z,2.60
2023-02-21T15:43:47.821Z,2.43
2023-02-21T15:46:20.331Z,2.43
2023-02-21T15:48:50.691Z,2.30
2023-02-21T15:51:19.180Z,2.17
2023-02-21T15:54:12.277Z,4.40
2023-02-21T15:56:40.416Z,2.60
2023-02-21T15:59:20.630Z,2.70
2023-02-21T16:02:17.011Z,3.20
2023-02-21T16:04:47.802Z,2.53
2023-02-21T16:07:21.069Z,2.90
2023-02-21T16:09:52.038Z,3.00
2023-02-21T16:12:30.546Z,3.07
2023-02-21T16:15:01.911Z,3.30
2023-02-21T16:17:32.710Z,2.70
2023-02-21T16:20:14.200Z,3.20
2023-02-21T16:23:08.221Z,3.53
2023-02-21T16:25:36.717Z,3.40
2023-02-21T16:28:13.552Z,3.70
2023-02-21T16:30:41.692Z,3.50
2023-02-21T16:33:14.419Z,3.23
2023-02-21T16:35:44.213Z,4.07
2023-02-21T16:38:15.552Z,4.63
2023-02-21T16:40:46.390Z,5.33
2023-02-21T16:43:20.384Z,3.13
2023-02-21T16:45:49.963Z,3.43
2023-02-21T16:48:21.742Z,3.60
2023-02-21T16:50:52.246Z,3.83
2023-02-21T16:53:21.953Z,3.23
2023-02-21T16:55:51.118Z,3.60
2023-02-21T16:58:25.952Z,4.53
2023-02-21T17:00:54.798Z,4.27
2023-02-21T17:03:22.859Z,4.43
2023-02-21T17:05:56.531Z,3.70
2023-02-21T17:08:25.581Z,3.73
2023-02-21T17:10:53.546Z,3.10
2023-02-21T17:13:24.282Z,2.87
2023-02-21T17:15:54.565Z,2.80
2023-02-21T17:18:22.792Z,3.03
2023-02-21T17:20:52.146Z,3.67
2023-02-21T17:23:20.161Z,2.97
2023-02-21T17:25:48.235Z,3.30
2023-02-21T17:28:16.411Z,3.40
2023-02-21T17:30:44.657Z,3.33
2023-02-21T17:33:12.640Z,4.20
2023-02-21T17:35:43.291Z,3.73
2023-02-21T17:38:12.644Z,3.13
2023-02-21T17:40:40.606Z,3.57
2023-02-21T17:43:08.756Z,3.93
2023-02-21T17:45:37.669Z,5.17
2023-02-21T17:48:06.436Z,3.80
2023-02-21T17:50:34.520Z,7.40
2023-02-21T17:53:05.024Z,6.80
2023-02-21T17:55:34.366Z,5.33
2023-02-21T17:58:06.262Z,7.07
2023-02-21T18:00:35.058Z,7.67
2023-02-21T18:03:04.386Z,6.97
2023-02-21T18:05:33.047Z,5.87
2023-02-21T18:08:03.134Z,5.77
2023-02-21T18:10:31.399Z,7.30
2023-02-21T18:13:01.966Z,8.67
2023-02-21T18:15:32.585Z,10.20
2023-02-21T18:18:06.920Z,10.20
2023-02-21T18:20:35.791Z,10.77
2023-02-21T18:23:07.356Z,8.43
2023-02-21T18:25:35.877Z,8.53
2023-02-21T18:28:05.824Z,9.23
2023-02-21T18:30:33.924Z,11.17
2023-02-21T18:33:04.396Z,9.07
2023-02-21T18:35:32.359Z,11.83
2023-02-21T18:38:00.388Z,11.50
2023-02-21T18:40:35.119Z,13.67
2023-02-21T18:43:05.806Z,13.37
2023-02-21T18:45:35.202Z,14.70
2023-02-21T18:48:06.445Z,15.93
2023-02-21T18:50:36.667Z,17.30
2023-02-21T18:53:05.711Z,18.33
2023-02-21T18:55:34.053Z,18.47
2023-02-21T18:58:04.936Z,21.27
2023-02-21T19:00:36.312Z,16.83
2023-02-21T19:03:06.159Z,17.50
2023-02-21T19:05:34.964Z,16.47
2023-02-21T19:08:03.124Z,19.47
2023-02-21T19:10:31.829Z,16.70
2023-02-21T19:13:01.952Z,15.63
2023-02-21T19:15:31.515Z,12.47
2023-02-21T19:18:01.304Z,15.23
2023-02-21T19:20:29.301Z,16.87
2023-02-21T19:22:57.628Z,14.43
2023-02-21T19:25:27.764Z,15.73
2023-02-21T19:28:00.381Z,13.30
2023-02-21T19:30:32.815Z,14.60
2023-02-21T19:33:05.415Z,14.40
2023-02-21T19:35:35.163Z,13.03
2023-02-21T19:38:05.622Z,11.60
2023-02-21T19:40:34.731Z,13.20
2023-02-21T19:43:03.052Z,14.20
2023-02-21T19:45:31.895Z,13.83
2023-02-21T19:48:03.746Z,10.33
2023-02-21T19:50:36.123Z,13.43
2023-02-21T19:53:07.726Z,12.87
2023-02-21T19:55:35.830Z,9.97
2023-02-21T19:58:08.552Z,11.37
2023-02-21T20:00:38.530Z,10.70
2023-02-21T20:03:08.030Z,13.80
2023-02-21T20:05:36.248Z,11.63
2023-02-21T20:08:05.858Z,15.03
2023-02-21T20:10:35.033Z,9.70
2023-02-21T20:13:06.272Z,12.40
2023-02-21T20:15:35.798Z,13.50
2023-02-21T20:18:04.598Z,14.53
2023-02-21T20:20:37.105Z,9.33
2023-02-21T20:23:05.189Z,10.93
2023-02-21T20:25:34.164Z,14.10
2023-02-21T20:28:11.749Z,12.73
2023-02-21T20:30:45.370Z,11.57
2023-02-21T20:33:16.847Z,12.77
2023-02-21T20:35:47.056Z,12.50
2023-02-21T20:38:17.789Z,12.70
2023-02-21T20:40:45.964Z,10.20
2023-02-21T20:43:14.312Z,16.67
2023-02-21T20:45:43.624Z,12.70
2023-02-21T20:48:12.260Z,12.40
2023-02-21T20:50:42.610Z,14.73
2023-02-21T20:53:12.069Z,13.03
2023-02-21T20:55:40.687Z,16.70
2023-02-21T20:58:10.367Z,13.20
2023-02-21T21:00:38.411Z,14.30
2023-02-21T21:03:09.226Z,14.83
2023-02-21T21:05:37.235Z,13.57
2023-02-21T21:08:05.381Z,13.03
2023-02-21T21:10:34.940Z,13.73
2023-02-21T21:13:05.393Z,19.50
2023-02-21T21:15:33.401Z,18.33
2023-02-21T21:18:03.796Z,21.90
2023-02-21T21:20:34.655Z,20.77
2023-02-21T21:23:05.950Z,20.63
2023-02-21T21:25:35.647Z,25.77
2023-02-21T21:28:05.584Z,20.57
2023-02-21T21:30:36.111Z,25.77
2023-02-21T21:33:07.381Z,18.43
2023-02-21T21:35:37.048Z,22.00
2023-02-21T21:38:07.223Z,21.07
2023-02-21T21:40:36.607Z,21.73
2023-02-21T21:43:10.246Z,20.87
2023-02-21T21:45:44.286Z,20.13
2023-02-21T21:48:14.656Z,18.03
2023-02-21T21:50:43.074Z,17.63
2023-02-21T21:53:11.848Z,18.80
2023-02-21T21:55:41.237Z,20.23
2023-02-21T21:58:13.756Z,20.50
2023-02-21T22:00:46.789Z,18.83
2023-02-21T22:03:15.124Z,20.50
2023-02-21T22:05:44.311Z,19.60
2023-02-21T22:08:16.386Z,16.67
2023-02-21T22:10:46.465Z,19.43
2023-02-21T22:13:14.672Z,19.67
2023-02-21T22:15:44.923Z,18.93
2023-02-21T22:18:13.998Z,18.00
2023-02-21T22:20:49.333Z,16.57
2023-02-21T22:23:21.305Z,16.27
2023-02-21T22:25:51.004Z,18.53
2023-02-21T22:28:19.069Z,17.57
2023-02-21T22:30:47.363Z,16.20
2023-02-21T22:33:20.388Z,19.80
2023-02-21T22:35:48.436Z,20.87
2023-02-21T22:38:31.966Z,19.37
2023-02-21T22:41:02.341Z,18.37
2023-02-21T22:43:30.326Z,17.97
2023-02-21T22:45:58.549Z,15.47
2023-02-21T22:48:26.588Z,18.67
2023-02-21T22:50:55.333Z,18.77
2023-02-21T22:53:23.414Z,18.87
2023-02-21T22:55:52.589Z,17.77
2023-02-21T22:58:23.302Z,19.40
2023-02-21T23:00:51.783Z,19.67
2023-02-21T23:03:19.840Z,23.70
2023-02-21T23:05:49.513Z,21.03
2023-02-21T23:08:19.763Z,20.53
2023-02-21T23:10:48.456Z,21.63
2023-02-21T23:13:19.681Z,21.97
2023-02-21T23:15:49.684Z,26.23
2023-02-21T23:18:21.244Z,24.40
2023-02-21T23:20:52.615Z,21.70
2023-02-21T23:23:25.989Z,23.50
2023-02-21T23:25:56.414Z,27.00
2023-02-21T23:28:24.695Z,22.87
2023-02-21T23:30:56.080Z,22.27
2023-02-21T23:33:27.478Z,23.30
2023-02-21T23:35:57.001Z,26.00
2023-02-21T23:38:27.956Z,24.80
2023-02-21T23:40:58.030Z,22.70
2023-02-21T23:43:29.594Z,26.37
2023-02-21T23:46:00.332Z,29.03
2023-02-21T23:48:29.439Z,24.07
2023-02-21T23:50:58.433Z,23.23
2023-02-21T23:53:29.222Z,24.10
2023-02-21T23:56:03.109Z,25.27
2023-02-21T23:58:32.533Z,24.67
